sensor_id;sensor_type;location;lat;lon;timestamp;P1;durP1;ratioP1;P2;durP2;ratioP2
75730;SDS011;64350;47.450;19.124;2022-11-03T05:45:37;19.77;;;10.63;;
75730;SDS011;64350;47.450;19.124;2022-11-03T05:48:12;19.58;;;9.70;;
75730;SDS011;64350;47.450;19.124;2022-11-03T05:50:41;22.80;;;10.75;;
75730;SDS011;64350;47.450;19.124;2022-11-03T05:53:18;20.45;;;11.05;;
75730;SDS011;64350;47.450;19.124;2022-11-03T05:55:46;20.30;;;11.13;;
75730;SDS011;64350;47.450;19.124;2022-11-03T05:58:57;19.37;;;11.63;;
75730;SDS011;64350;47.450;19.124;2022-11-03T06:01:27;20.67;;;11.50;;
75730;SDS011;64350;47.450;19.124;2022-11-03T06:09:47;20.73;;;11.77;;
75730;SDS011;64350;47.450;19.124;2022-11-03T06:12:13;20.20;;;11.07;;
75730;SDS011;64350;47.450;19.124;2022-11-03T06:14:42;19.67;;;11.20;;
75730;SDS011;64350;47.450;19.124;2022-11-03T06:17:26;20.47;;;11.47;;
75730;SDS011;64350;47.450;19.124;2022-11-03T06:19:53;20.33;;;10.50;;
75730;SDS011;64350;47.450;19.124;2022-11-03T06:22:26;21.20;;;11.48;;
75730;SDS011;64350;47.450;19.124;2022-11-03T06:27:55;20.05;;;11.02;;
75730;SDS011;64350;47.450;19.124;2022-11-03T06:30:25;20.08;;;11.10;;
75730;SDS011;64350;47.450;19.124;2022-11-03T06:33:03;20.73;;;10.98;;
75730;SDS011;64350;47.450;19.124;2022-11-03T06:35:34;22.00;;;11.77;;
75730;SDS011;64350;47.450;19.124;2022-11-03T06:37:59;26.20;;;11.33;;
75730;SDS011;64350;47.450;19.124;2022-11-03T06:40:29;20.77;;;11.50;;
75730;SDS011;64350;47.450;19.124;2022-11-03T06:42:58;21.30;;;11.45;;
75730;SDS011;64350;47.450;19.124;2022-11-03T06:45:27;21.42;;;10.10;;
75730;SDS011;64350;47.450;19.124;2022-11-03T06:47:53;18.62;;;10.15;;
75730;SDS011;64350;47.450;19.124;2022-11-03T06:52:56;18.02;;;9.55;;
75730;SDS011;64350;47.450;19.124;2022-11-03T06:57:50;16.90;;;8.47;;
75730;SDS011;64350;47.450;19.124;2022-11-03T07:00:28;17.60;;;8.32;;
75730;SDS011;64350;47.450;19.124;2022-11-03T07:03:02;17.75;;;9.40;;
75730;SDS011;64350;47.450;19.124;2022-11-03T07:05:30;19.25;;;8.38;;
75730;SDS011;64350;47.450;19.124;2022-11-03T07:07:57;16.73;;;8.35;;
75730;SDS011;64350;47.450;19.124;2022-11-03T07:10:24;14.50;;;7.43;;
75730;SDS011;64350;47.450;19.124;2022-11-03T07:12:50;13.35;;;8.23;;
75730;SDS011;64350;47.450;19.124;2022-11-03T07:15:35;20.08;;;8.25;;
75730;SDS011;64350;47.450;19.124;2022-11-03T07:18:04;18.45;;;8.70;;
75730;SDS011;64350;47.450;19.124;2022-11-03T07:20:42;17.57;;;7.90;;
75730;SDS011;64350;47.450;19.124;2022-11-03T07:23:08;16.85;;;7.90;;
75730;SDS011;64350;47.450;19.124;2022-11-03T07:25:34;18.33;;;8.00;;
75730;SDS011;64350;47.450;19.124;2022-11-03T07:28:00;17.40;;;8.70;;
75730;SDS011;64350;47.450;19.124;2022-11-03T07:30:29;20.10;;;9.80;;
75730;SDS011;64350;47.450;19.124;2022-11-03T07:33:10;18.75;;;9.32;;
75730;SDS011;64350;47.450;19.124;2022-11-03T07:35:41;20.75;;;9.80;;
75730;SDS011;64350;47.450;19.124;2022-11-03T07:38:14;19.62;;;9.73;;
75730;SDS011;64350;47.450;19.124;2022-11-03T07:40:44;19.87;;;9.65;;
75730;SDS011;64350;47.450;19.124;2022-11-03T07:43:29;19.30;;;9.90;;
75730;SDS011;64350;47.450;19.124;2022-11-03T07:45:56;25.35;;;10.50;;
75730;SDS011;64350;47.450;19.124;2022-11-03T07:50:53;24.93;;;11.57;;
75730;SDS011;64350;47.450;19.124;2022-11-03T07:55:50;25.52;;;12.25;;
75730;SDS011;64350;47.450;19.124;2022-11-03T07:58:21;30.25;;;12.20;;
75730;SDS011;64350;47.450;19.124;2022-11-03T08:00:49;25.23;;;12.20;;
75730;SDS011;64350;47.450;19.124;2022-11-03T08:03:24;25.87;;;12.60;;
75730;SDS011;64350;47.450;19.124;2022-11-03T08:05:52;27.35;;;13.38;;
75730;SDS011;64350;47.450;19.124;2022-11-03T08:08:17;31.95;;;13.48;;
75730;SDS011;64350;47.450;19.124;2022-11-03T08:10:43;29.23;;;13.50;;
75730;SDS011;64350;47.450;19.124;2022-11-03T08:13:08;31.20;;;13.87;;
75730;SDS011;64350;47.450;19.124;2022-11-03T08:15:33;28.47;;;13.07;;
75730;SDS011;64350;47.450;19.124;2022-11-03T08:17:59;29.57;;;13.70;;
75730;SDS011;64350;47.450;19.124;2022-11-03T08:20:24;32.20;;;14.00;;
75730;SDS011;64350;47.450;19.124;2022-11-03T08:22:50;27.93;;;13.83;;
75730;SDS011;64350;47.450;19.124;2022-11-03T08:25:15;30.87;;;13.97;;
75730;SDS011;64350;47.450;19.124;2022-11-03T08:27:40;29.97;;;13.97;;
75730;SDS011;64350;47.450;19.124;2022-11-03T08:30:06;31.00;;;14.50;;
75730;SDS011;64350;47.450;19.124;2022-11-03T08:32:31;27.77;;;13.25;;
75730;SDS011;64350;47.450;19.124;2022-11-03T08:34:57;27.13;;;13.57;;
75730;SDS011;64350;47.450;19.124;2022-11-03T08:37:22;32.42;;;13.70;;
75730;SDS011;64350;47.450;19.124;2022-11-03T08:39:48;29.63;;;13.23;;
75730;SDS011;64350;47.450;19.124;2022-11-03T08:42:13;29.60;;;13.80;;
75730;SDS011;64350;47.450;19.124;2022-11-03T08:44:39;32.63;;;14.40;;
75730;SDS011;64350;47.450;19.124;2022-11-03T08:47:04;36.60;;;15.53;;
75730;SDS011;64350;47.450;19.124;2022-11-03T08:49:29;38.03;;;15.88;;
75730;SDS011;64350;47.450;19.124;2022-11-03T08:51:55;33.87;;;14.10;;
75730;SDS011;64350;47.450;19.124;2022-11-03T08:54:20;33.57;;;13.97;;
75730;SDS011;64350;47.450;19.124;2022-11-03T08:56:46;36.13;;;14.67;;
75730;SDS011;64350;47.450;19.124;2022-11-03T08:59:12;33.80;;;15.27;;
75730;SDS011;64350;47.450;19.124;2022-11-03T09:01:38;33.80;;;15.43;;
75730;SDS011;64350;47.450;19.124;2022-11-03T09:04:03;37.77;;;16.80;;
75730;SDS011;64350;47.450;19.124;2022-11-03T09:06:29;36.17;;;15.40;;
75730;SDS011;64350;47.450;19.124;2022-11-03T09:08:54;31.57;;;14.73;;
75730;SDS011;64350;47.450;19.124;2022-11-03T09:11:19;33.77;;;14.23;;
75730;SDS011;64350;47.450;19.124;2022-11-03T09:13:45;36.70;;;15.87;;
75730;SDS011;64350;47.450;19.124;2022-11-03T09:16:10;32.40;;;14.87;;
75730;SDS011;64350;47.450;19.124;2022-11-03T09:18:36;34.77;;;14.60;;
75730;SDS011;64350;47.450;19.124;2022-11-03T09:21:01;36.77;;;15.57;;
75730;SDS011;64350;47.450;19.124;2022-11-03T09:23:27;38.83;;;17.03;;
75730;SDS011;64350;47.450;19.124;2022-11-03T09:25:52;36.13;;;16.00;;
75730;SDS011;64350;47.450;19.124;2022-11-03T09:28:17;34.28;;;15.40;;
75730;SDS011;64350;47.450;19.124;2022-11-03T09:30:43;34.50;;;14.73;;
75730;SDS011;64350;47.450;19.124;2022-11-03T09:33:08;37.37;;;16.07;;
75730;SDS011;64350;47.450;19.124;2022-11-03T09:35:33;36.73;;;15.23;;
75730;SDS011;64350;47.450;19.124;2022-11-03T09:37:59;35.80;;;14.63;;
75730;SDS011;64350;47.450;19.124;2022-11-03T09:40:24;32.10;;;13.98;;
75730;SDS011;64350;47.450;19.124;2022-11-03T09:42:50;34.20;;;13.53;;
75730;SDS011;64350;47.450;19.124;2022-11-03T09:45:15;30.33;;;13.93;;
75730;SDS011;64350;47.450;19.124;2022-11-03T09:47:41;33.75;;;14.05;;
75730;SDS011;64350;47.450;19.124;2022-11-03T09:50:17;35.77;;;14.20;;
75730;SDS011;64350;47.450;19.124;2022-11-03T09:52:44;36.30;;;14.68;;
75730;SDS011;64350;47.450;19.124;2022-11-03T09:55:14;32.03;;;14.52;;
75730;SDS011;64350;47.450;19.124;2022-11-03T09:58:00;31.35;;;14.45;;
75730;SDS011;64350;47.450;19.124;2022-11-03T10:00:29;36.50;;;15.15;;
75730;SDS011;64350;47.450;19.124;2022-11-03T10:02:54;36.07;;;14.83;;
75730;SDS011;64350;47.450;19.124;2022-11-03T10:05:24;36.07;;;16.20;;
75730;SDS011;64350;47.450;19.124;2022-11-03T10:07:56;41.17;;;16.02;;
75730;SDS011;64350;47.450;19.124;2022-11-03T10:10:23;39.05;;;16.37;;
75730;SDS011;64350;47.450;19.124;2022-11-03T10:12:48;37.87;;;16.40;;
75730;SDS011;64350;47.450;19.124;2022-11-03T10:15:16;39.20;;;17.05;;
75730;SDS011;64350;47.450;19.124;2022-11-03T10:17:42;43.67;;;16.55;;
75730;SDS011;64350;47.450;19.124;2022-11-03T10:20:09;36.78;;;16.23;;
75730;SDS011;64350;47.450;19.124;2022-11-03T10:22:39;41.53;;;16.17;;
75730;SDS011;64350;47.450;19.124;2022-11-03T10:33:32;35.95;;;16.15;;
75730;SDS011;64350;47.450;19.124;2022-11-03T10:38:39;36.55;;;15.63;;
75730;SDS011;64350;47.450;19.124;2022-11-03T10:41:22;35.35;;;15.70;;
75730;SDS011;64350;47.450;19.124;2022-11-03T10:44:12;33.00;;;15.13;;
75730;SDS011;64350;47.450;19.124;2022-11-03T10:46:40;32.97;;;14.60;;
75730;SDS011;64350;47.450;19.124;2022-11-03T10:49:33;35.20;;;15.40;;
75730;SDS011;64350;47.450;19.124;2022-11-03T10:54:42;35.47;;;15.32;;
75730;SDS011;64350;47.450;19.124;2022-11-03T10:57:07;31.57;;;13.23;;
75730;SDS011;64350;47.450;19.124;2022-11-03T10:59:33;33.57;;;14.70;;
75730;SDS011;64350;47.450;19.124;2022-11-03T11:02:01;31.67;;;14.10;;
75730;SDS011;64350;47.450;19.124;2022-11-03T11:04:28;34.72;;;15.20;;
75730;SDS011;64350;47.450;19.124;2022-11-03T11:06:53;32.43;;;15.57;;
75730;SDS011;64350;47.450;19.124;2022-11-03T11:09:21;33.73;;;15.30;;
75730;SDS011;64350;47.450;19.124;2022-11-03T11:14:35;39.97;;;16.73;;
75730;SDS011;64350;47.450;19.124;2022-11-03T11:17:03;41.10;;;16.92;;
75730;SDS011;64350;47.450;19.124;2022-11-03T11:19:29;35.90;;;16.03;;
75730;SDS011;64350;47.450;19.124;2022-11-03T11:29:56;34.92;;;15.73;;
75730;SDS011;64350;47.450;19.124;2022-11-03T11:35:09;35.75;;;15.80;;
75730;SDS011;64350;47.450;19.124;2022-11-03T11:37:50;40.93;;;15.77;;
75730;SDS011;64350;47.450;19.124;2022-11-03T11:48:31;43.30;;;17.00;;
75730;SDS011;64350;47.450;19.124;2022-11-03T11:51:00;42.27;;;16.77;;
75730;SDS011;64350;47.450;19.124;2022-11-03T11:53:26;39.63;;;17.27;;
75730;SDS011;64350;47.450;19.124;2022-11-03T11:55:56;40.83;;;17.95;;
75730;SDS011;64350;47.450;19.124;2022-11-03T11:58:35;41.22;;;16.45;;
75730;SDS011;64350;47.450;19.124;2022-11-03T12:01:17;36.25;;;16.17;;
75730;SDS011;64350;47.450;19.124;2022-11-03T12:03:46;44.53;;;18.07;;
75730;SDS011;64350;47.450;19.124;2022-11-03T12:06:12;43.72;;;18.20;;
75730;SDS011;64350;47.450;19.124;2022-11-03T12:08:38;40.40;;;16.87;;
75730;SDS011;64350;47.450;19.124;2022-11-03T12:11:04;42.28;;;17.62;;
75730;SDS011;64350;47.450;19.124;2022-11-03T12:15:59;42.62;;;16.85;;
75730;SDS011;64350;47.450;19.124;2022-11-03T12:18:31;46.40;;;18.80;;
75730;SDS011;64350;47.450;19.124;2022-11-03T12:21:05;41.45;;;18.73;;
75730;SDS011;64350;47.450;19.124;2022-11-03T12:23:40;46.13;;;18.75;;
75730;SDS011;64350;47.450;19.124;2022-11-03T12:26:39;39.58;;;17.10;;
75730;SDS011;64350;47.450;19.124;2022-11-03T12:28:58;39.40;;;17.67;;
75730;SDS011;64350;47.450;19.124;2022-11-03T12:31:23;46.83;;;18.12;;
75730;SDS011;64350;47.450;19.124;2022-11-03T12:33:49;52.20;;;20.40;;
75730;SDS011;64350;47.450;19.124;2022-11-03T12:36:14;47.87;;;19.83;;
75730;SDS011;64350;47.450;19.124;2022-11-03T12:38:39;53.03;;;21.90;;
75730;SDS011;64350;47.450;19.124;2022-11-03T12:41:05;47.43;;;19.60;;
75730;SDS011;64350;47.450;19.124;2022-11-03T12:43:48;46.60;;;20.25;;
75730;SDS011;64350;47.450;19.124;2022-11-03T12:46:15;46.25;;;20.33;;
75730;SDS011;64350;47.450;19.124;2022-11-03T12:48:41;51.30;;;19.67;;
75730;SDS011;64350;47.450;19.124;2022-11-03T12:51:09;53.13;;;19.95;;
75730;SDS011;64350;47.450;19.124;2022-11-03T12:53:41;51.33;;;19.70;;
75730;SDS011;64350;47.450;19.124;2022-11-03T12:56:07;47.00;;;18.02;;
75730;SDS011;64350;47.450;19.124;2022-11-03T12:58:33;44.60;;;19.00;;
75730;SDS011;64350;47.450;19.124;2022-11-03T13:00:59;42.97;;;19.07;;
75730;SDS011;64350;47.450;19.124;2022-11-03T13:03:25;45.63;;;18.30;;
75730;SDS011;64350;47.450;19.124;2022-11-03T13:05:50;49.93;;;18.80;;
75730;SDS011;64350;47.450;19.124;2022-11-03T13:08:16;51.70;;;18.90;;
75730;SDS011;64350;47.450;19.124;2022-11-03T13:10:41;45.03;;;17.63;;
75730;SDS011;64350;47.450;19.124;2022-11-03T13:13:07;39.17;;;16.50;;
75730;SDS011;64350;47.450;19.124;2022-11-03T13:15:32;38.93;;;17.47;;
75730;SDS011;64350;47.450;19.124;2022-11-03T13:17:58;42.07;;;18.17;;
75730;SDS011;64350;47.450;19.124;2022-11-03T13:20:23;39.03;;;17.30;;
75730;SDS011;64350;47.450;19.124;2022-11-03T13:22:49;42.17;;;18.87;;
75730;SDS011;64350;47.450;19.124;2022-11-03T13:25:15;40.27;;;16.57;;
75730;SDS011;64350;47.450;19.124;2022-11-03T13:27:40;41.72;;;18.10;;
75730;SDS011;64350;47.450;19.124;2022-11-03T13:30:06;42.70;;;18.67;;
75730;SDS011;64350;47.450;19.124;2022-11-03T13:32:32;41.63;;;19.00;;
75730;SDS011;64350;47.450;19.124;2022-11-03T13:34:57;41.30;;;17.70;;
75730;SDS011;64350;47.450;19.124;2022-11-03T13:37:23;42.47;;;18.50;;
75730;SDS011;64350;47.450;19.124;2022-11-03T13:39:48;40.70;;;17.90;;
75730;SDS011;64350;47.450;19.124;2022-11-03T13:42:13;35.72;;;17.02;;
75730;SDS011;64350;47.450;19.124;2022-11-03T13:44:39;32.80;;;16.00;;
75730;SDS011;64350;47.450;19.124;2022-11-03T13:47:04;37.50;;;17.30;;
75730;SDS011;64350;47.450;19.124;2022-11-03T13:49:30;33.50;;;15.27;;
75730;SDS011;64350;47.450;19.124;2022-11-03T13:51:55;34.13;;;16.03;;
75730;SDS011;64350;47.450;19.124;2022-11-03T13:54:20;34.10;;;16.10;;
75730;SDS011;64350;47.450;19.124;2022-11-03T13:56:46;38.20;;;17.17;;
75730;SDS011;64350;47.450;19.124;2022-11-03T13:59:11;34.80;;;16.63;;
75730;SDS011;64350;47.450;19.124;2022-11-03T14:01:37;37.47;;;15.87;;
75730;SDS011;64350;47.450;19.124;2022-11-03T14:04:02;32.75;;;15.90;;
75730;SDS011;64350;47.450;19.124;2022-11-03T14:06:28;31.97;;;15.63;;
75730;SDS011;64350;47.450;19.124;2022-11-03T14:08:53;33.87;;;16.93;;
75730;SDS011;64350;47.450;19.124;2022-11-03T14:11:19;36.73;;;16.40;;
75730;SDS011;64350;47.450;19.124;2022-11-03T14:14:03;31.60;;;15.27;;
75730;SDS011;64350;47.450;19.124;2022-11-03T14:16:28;35.33;;;17.00;;
75730;SDS011;64350;47.450;19.124;2022-11-03T14:18:53;34.50;;;16.60;;
75730;SDS011;64350;47.450;19.124;2022-11-03T14:21:19;31.57;;;16.60;;
75730;SDS011;64350;47.450;19.124;2022-11-03T14:23:44;33.83;;;16.40;;
75730;SDS011;64350;47.450;19.124;2022-11-03T14:26:10;27.30;;;13.60;;
75730;SDS011;64350;47.450;19.124;2022-11-03T14:28:35;34.23;;;15.97;;
75730;SDS011;64350;47.450;19.124;2022-11-03T14:31:00;33.20;;;16.07;;
75730;SDS011;64350;47.450;19.124;2022-11-03T14:33:27;35.42;;;17.17;;
75730;SDS011;64350;47.450;19.124;2022-11-03T14:35:53;35.37;;;16.97;;
75730;SDS011;64350;47.450;19.124;2022-11-03T14:38:18;40.63;;;18.67;;
75730;SDS011;64350;47.450;19.124;2022-11-03T14:40:46;36.72;;;16.83;;
75730;SDS011;64350;47.450;19.124;2022-11-03T14:43:31;35.97;;;18.17;;
75730;SDS011;64350;47.450;19.124;2022-11-03T14:45:56;34.43;;;17.13;;
75730;SDS011;64350;47.450;19.124;2022-11-03T14:48:21;35.43;;;17.07;;
75730;SDS011;64350;47.450;19.124;2022-11-03T14:50:47;33.90;;;16.73;;
75730;SDS011;64350;47.450;19.124;2022-11-03T14:53:12;33.97;;;17.85;;
75730;SDS011;64350;47.450;19.124;2022-11-03T14:55:38;35.97;;;17.53;;
75730;SDS011;64350;47.450;19.124;2022-11-03T14:58:03;32.60;;;17.10;;
75730;SDS011;64350;47.450;19.124;2022-11-03T15:00:29;33.93;;;17.00;;
75730;SDS011;64350;47.450;19.124;2022-11-03T15:02:54;31.95;;;14.98;;
75730;SDS011;64350;47.450;19.124;2022-11-03T15:05:20;33.40;;;17.00;;
75730;SDS011;64350;47.450;19.124;2022-11-03T15:08:04;34.38;;;17.25;;
75730;SDS011;64350;47.450;19.124;2022-11-03T15:10:32;38.03;;;18.02;;
75730;SDS011;64350;47.450;19.124;2022-11-03T15:12:57;34.53;;;16.57;;
75730;SDS011;64350;47.450;19.124;2022-11-03T15:15:22;34.00;;;16.50;;
75730;SDS011;64350;47.450;19.124;2022-11-03T15:17:48;33.07;;;17.07;;
75730;SDS011;64350;47.450;19.124;2022-11-03T15:20:13;33.30;;;16.60;;
75730;SDS011;64350;47.450;19.124;2022-11-03T15:22:41;31.45;;;16.87;;
75730;SDS011;64350;47.450;19.124;2022-11-03T15:25:06;34.03;;;17.07;;
75730;SDS011;64350;47.450;19.124;2022-11-03T15:27:32;32.95;;;16.70;;
75730;SDS011;64350;47.450;19.124;2022-11-03T15:30:00;29.63;;;14.57;;
75730;SDS011;64350;47.450;19.124;2022-11-03T15:32:26;32.83;;;15.00;;
75730;SDS011;64350;47.450;19.124;2022-11-03T15:34:56;35.27;;;17.17;;
75730;SDS011;64350;47.450;19.124;2022-11-03T15:37:31;36.05;;;17.23;;
75730;SDS011;64350;47.450;19.124;2022-11-03T15:39:56;32.80;;;15.87;;
75730;SDS011;64350;47.450;19.124;2022-11-03T15:42:22;35.07;;;16.37;;
75730;SDS011;64350;47.450;19.124;2022-11-03T15:44:47;38.60;;;17.97;;
75730;SDS011;64350;47.450;19.124;2022-11-03T15:47:12;36.43;;;17.60;;
75730;SDS011;64350;47.450;19.124;2022-11-03T15:49:38;36.07;;;17.47;;
75730;SDS011;64350;47.450;19.124;2022-11-03T15:52:06;37.07;;;17.90;;
75730;SDS011;64350;47.450;19.124;2022-11-03T15:54:33;41.90;;;18.97;;
75730;SDS011;64350;47.450;19.124;2022-11-03T15:56:59;43.65;;;18.83;;
75730;SDS011;64350;47.450;19.124;2022-11-03T15:59:24;38.93;;;17.77;;
75730;SDS011;64350;47.450;19.124;2022-11-03T16:01:49;44.50;;;19.93;;
75730;SDS011;64350;47.450;19.124;2022-11-03T16:04:15;41.83;;;20.40;;
75730;SDS011;64350;47.450;19.124;2022-11-03T16:06:41;47.15;;;21.17;;
75730;SDS011;64350;47.450;19.124;2022-11-03T16:09:06;47.60;;;21.07;;
75730;SDS011;64350;47.450;19.124;2022-11-03T16:11:31;50.30;;;21.60;;
75730;SDS011;64350;47.450;19.124;2022-11-03T16:13:57;52.13;;;21.17;;
75730;SDS011;64350;47.450;19.124;2022-11-03T16:16:23;52.87;;;21.60;;
75730;SDS011;64350;47.450;19.124;2022-11-03T16:18:49;46.50;;;20.23;;
75730;SDS011;64350;47.450;19.124;2022-11-03T16:21:14;48.67;;;21.83;;
75730;SDS011;64350;47.450;19.124;2022-11-03T16:23:40;47.23;;;20.60;;
75730;SDS011;64350;47.450;19.124;2022-11-03T16:26:05;54.33;;;21.70;;
75730;SDS011;64350;47.450;19.124;2022-11-03T16:28:32;49.37;;;20.77;;
75730;SDS011;64350;47.450;19.124;2022-11-03T16:30:58;51.70;;;21.77;;
75730;SDS011;64350;47.450;19.124;2022-11-03T16:33:23;52.67;;;22.73;;
75730;SDS011;64350;47.450;19.124;2022-11-03T16:35:49;56.90;;;23.63;;
75730;SDS011;64350;47.450;19.124;2022-11-03T16:38:14;57.23;;;23.63;;
75730;SDS011;64350;47.450;19.124;2022-11-03T16:40:40;57.88;;;23.35;;
75730;SDS011;64350;47.450;19.124;2022-11-03T16:43:06;56.35;;;23.27;;
75730;SDS011;64350;47.450;19.124;2022-11-03T16:45:31;54.13;;;22.63;;
75730;SDS011;64350;47.450;19.124;2022-11-03T16:47:57;57.10;;;23.70;;
75730;SDS011;64350;47.450;19.124;2022-11-03T16:50:23;52.58;;;22.85;;
75730;SDS011;64350;47.450;19.124;2022-11-03T16:52:48;59.57;;;23.83;;
75730;SDS011;64350;47.450;19.124;2022-11-03T16:55:14;61.20;;;23.07;;
75730;SDS011;64350;47.450;19.124;2022-11-03T16:57:41;54.92;;;22.98;;
75730;SDS011;64350;47.450;19.124;2022-11-03T17:00:08;54.83;;;22.52;;
75730;SDS011;64350;47.450;19.124;2022-11-03T17:02:36;50.25;;;22.92;;
75730;SDS011;64350;47.450;19.124;2022-11-03T17:05:02;54.20;;;22.97;;
75730;SDS011;64350;47.450;19.124;2022-11-03T17:07:28;53.20;;;21.98;;
75730;SDS011;64350;47.450;19.124;2022-11-03T17:09:53;53.00;;;22.27;;
75730;SDS011;64350;47.450;19.124;2022-11-03T17:12:19;47.70;;;21.70;;
75730;SDS011;64350;47.450;19.124;2022-11-03T17:14:44;48.50;;;21.13;;
75730;SDS011;64350;47.450;19.124;2022-11-03T17:17:09;48.67;;;21.27;;
75730;SDS011;64350;47.450;19.124;2022-11-03T17:19:35;49.80;;;21.63;;
75730;SDS011;64350;47.450;19.124;2022-11-03T17:22:00;49.10;;;21.40;;
75730;SDS011;64350;47.450;19.124;2022-11-03T17:24:26;51.77;;;21.47;;
75730;SDS011;64350;47.450;19.124;2022-11-03T17:29:18;50.20;;;21.00;;
75730;SDS011;64350;47.450;19.124;2022-11-03T17:31:45;51.00;;;20.70;;
75730;SDS011;64350;47.450;19.124;2022-11-03T17:34:11;46.67;;;21.42;;
75730;SDS011;64350;47.450;19.124;2022-11-03T17:36:37;51.40;;;21.55;;
75730;SDS011;64350;47.450;19.124;2022-11-03T17:39:03;48.97;;;21.00;;
75730;SDS011;64350;47.450;19.124;2022-11-03T17:41:29;52.40;;;21.20;;
75730;SDS011;64350;47.450;19.124;2022-11-03T17:43:55;50.03;;;21.33;;
75730;SDS011;64350;47.450;19.124;2022-11-03T17:46:20;53.83;;;22.10;;
75730;SDS011;64350;47.450;19.124;2022-11-03T17:48:46;55.70;;;23.42;;
75730;SDS011;64350;47.450;19.124;2022-11-03T17:51:12;52.47;;;21.90;;
75730;SDS011;64350;47.450;19.124;2022-11-03T17:53:38;49.42;;;22.33;;
75730;SDS011;64350;47.450;19.124;2022-11-03T17:56:05;53.40;;;22.13;;
75730;SDS011;64350;47.450;19.124;2022-11-03T17:58:33;54.85;;;21.75;;
75730;SDS011;64350;47.450;19.124;2022-11-03T18:01:00;55.08;;;22.95;;
75730;SDS011;64350;47.450;19.124;2022-11-03T18:03:28;52.33;;;22.25;;
75730;SDS011;64350;47.450;19.124;2022-11-03T18:05:54;54.47;;;23.05;;
75730;SDS011;64350;47.450;19.124;2022-11-03T18:08:20;57.17;;;24.03;;
75730;SDS011;64350;47.450;19.124;2022-11-03T18:10:46;58.53;;;24.13;;
75730;SDS011;64350;47.450;19.124;2022-11-03T18:13:17;59.03;;;23.80;;
75730;SDS011;64350;47.450;19.124;2022-11-03T18:15:50;50.38;;;21.35;;
75730;SDS011;64350;47.450;19.124;2022-11-03T18:18:18;55.78;;;23.75;;
75730;SDS011;64350;47.450;19.124;2022-11-03T18:20:47;52.17;;;21.83;;
75730;SDS011;64350;47.450;19.124;2022-11-03T18:23:28;56.87;;;24.13;;
75730;SDS011;64350;47.450;19.124;2022-11-03T18:25:55;54.03;;;23.35;;
75730;SDS011;64350;47.450;19.124;2022-11-03T18:28:21;51.10;;;22.90;;
75730;SDS011;64350;47.450;19.124;2022-11-03T18:30:47;48.73;;;20.60;;
75730;SDS011;64350;47.450;19.124;2022-11-03T18:33:28;56.97;;;23.52;;
75730;SDS011;64350;47.450;19.124;2022-11-03T18:35:57;56.25;;;23.83;;
75730;SDS011;64350;47.450;19.124;2022-11-03T18:38:24;56.10;;;24.05;;
75730;SDS011;64350;47.450;19.124;2022-11-03T18:40:50;54.80;;;22.00;;
75730;SDS011;64350;47.450;19.124;2022-11-03T18:43:18;50.78;;;22.48;;
75730;SDS011;64350;47.450;19.124;2022-11-03T18:45:44;56.78;;;21.85;;
75730;SDS011;64350;47.450;19.124;2022-11-03T18:48:10;55.03;;;22.67;;
75730;SDS011;64350;47.450;19.124;2022-11-03T18:50:43;51.40;;;21.70;;
75730;SDS011;64350;47.450;19.124;2022-11-03T18:53:12;56.65;;;23.27;;
75730;SDS011;64350;47.450;19.124;2022-11-03T18:55:39;48.38;;;22.00;;
75730;SDS011;64350;47.450;19.124;2022-11-03T18:58:07;51.23;;;21.40;;
75730;SDS011;64350;47.450;19.124;2022-11-03T19:00:40;56.30;;;22.87;;
75730;SDS011;64350;47.450;19.124;2022-11-03T19:03:09;56.77;;;22.83;;
75730;SDS011;64350;47.450;19.124;2022-11-03T19:05:38;56.85;;;20.90;;
75730;SDS011;64350;47.450;19.124;2022-11-03T19:08:03;51.10;;;20.57;;
75730;SDS011;64350;47.450;19.124;2022-11-03T19:10:28;55.58;;;23.23;;
75730;SDS011;64350;47.450;19.124;2022-11-03T19:12:54;55.20;;;22.93;;
75730;SDS011;64350;47.450;19.124;2022-11-03T19:15:21;54.33;;;21.50;;
75730;SDS011;64350;47.450;19.124;2022-11-03T19:17:51;57.90;;;21.95;;
75730;SDS011;64350;47.450;19.124;2022-11-03T19:20:19;56.33;;;22.73;;
75730;SDS011;64350;47.450;19.124;2022-11-03T19:22:44;56.70;;;22.10;;
75730;SDS011;64350;47.450;19.124;2022-11-03T19:25:10;49.83;;;20.57;;
75730;SDS011;64350;47.450;19.124;2022-11-03T19:27:37;53.97;;;22.10;;
75730;SDS011;64350;47.450;19.124;2022-11-03T19:30:03;51.65;;;20.92;;
75730;SDS011;64350;47.450;19.124;2022-11-03T19:32:30;52.83;;;20.93;;
75730;SDS011;64350;47.450;19.124;2022-11-03T19:35:01;56.63;;;21.58;;
75730;SDS011;64350;47.450;19.124;2022-11-03T19:37:32;53.40;;;21.00;;
75730;SDS011;64350;47.450;19.124;2022-11-03T19:39:58;51.35;;;19.70;;
75730;SDS011;64350;47.450;19.124;2022-11-03T19:42:23;57.40;;;20.43;;
75730;SDS011;64350;47.450;19.124;2022-11-03T19:44:55;42.67;;;16.17;;
75730;SDS011;64350;47.450;19.124;2022-11-03T19:47:28;50.45;;;18.75;;
75730;SDS011;64350;47.450;19.124;2022-11-03T19:49:55;51.73;;;20.07;;
